sensor_id;sensor_type;location;lat;lon;timestamp;P1;durP1;ratioP1;P2;durP2;ratioP2
9563;SDS011;4820;50.870;4.702;2023-02-10T00:01:20;28.38;;;22.23;;
9563;SDS011;4820;50.870;4.702;2023-02-10T00:03:51;26.42;;;21.13;;
9563;SDS011;4820;50.870;4.702;2023-02-10T00:06:18;28.48;;;21.63;;
9563;SDS011;4820;50.870;4.702;2023-02-10T00:08:52;28.33;;;21.27;;
9563;SDS011;4820;50.870;4.702;2023-02-10T00:11:20;27.27;;;21.48;;
9563;SDS011;4820;50.870;4.702;2023-02-10T00:14:06;25.23;;;20.73;;
9563;SDS011;4820;50.870;4.702;2023-02-10T00:16:32;27.08;;;21.65;;
9563;SDS011;4820;50.870;4.702;2023-02-10T00:18:59;27.60;;;22.17;;
9563;SDS011;4820;50.870;4.702;2023-02-10T00:21:25;26.08;;;21.13;;
9563;SDS011;4820;50.870;4.702;2023-02-10T00:23:51;27.55;;;22.33;;
9563;SDS011;4820;50.870;4.702;2023-02-10T00:26:18;28.77;;;22.50;;
9563;SDS011;4820;50.870;4.702;2023-02-10T00:28:45;27.58;;;22.63;;
9563;SDS011;4820;50.870;4.702;2023-02-10T00:31:11;28.23;;;22.23;;
9563;SDS011;4820;50.870;4.702;2023-02-10T00:33:38;27.95;;;22.40;;
9563;SDS011;4820;50.870;4.702;2023-02-10T00:36:05;26.50;;;21.88;;
9563;SDS011;4820;50.870;4.702;2023-02-10T00:38:35;26.52;;;21.77;;
9563;SDS011;4820;50.870;4.702;2023-02-10T00:41:20;26.10;;;21.15;;
9563;SDS011;4820;50.870;4.702;2023-02-10T00:43:47;25.48;;;20.73;;
9563;SDS011;4820;50.870;4.702;2023-02-10T00:46:13;25.23;;;20.95;;
9563;SDS011;4820;50.870;4.702;2023-02-10T00:48:40;26.10;;;20.60;;
9563;SDS011;4820;50.870;4.702;2023-02-10T00:51:06;27.45;;;21.85;;
9563;SDS011;4820;50.870;4.702;2023-02-10T00:53:32;29.13;;;21.48;;
9563;SDS011;4820;50.870;4.702;2023-02-10T00:55:59;27.70;;;21.92;;
9563;SDS011;4820;50.870;4.702;2023-02-10T00:58:25;28.08;;;21.55;;
9563;SDS011;4820;50.870;4.702;2023-02-10T01:00:53;23.92;;;19.75;;
9563;SDS011;4820;50.870;4.702;2023-02-10T01:03:23;26.83;;;22.13;;
9563;SDS011;4820;50.870;4.702;2023-02-10T01:05:50;25.83;;;21.75;;
9563;SDS011;4820;50.870;4.702;2023-02-10T01:08:16;25.30;;;21.33;;
9563;SDS011;4820;50.870;4.702;2023-02-10T01:10:42;25.98;;;21.25;;
9563;SDS011;4820;50.870;4.702;2023-02-10T01:13:09;27.95;;;21.63;;
9563;SDS011;4820;50.870;4.702;2023-02-10T01:15:40;27.10;;;21.40;;
9563;SDS011;4820;50.870;4.702;2023-02-10T01:18:09;27.98;;;21.77;;
9563;SDS011;4820;50.870;4.702;2023-02-10T01:20:37;26.30;;;21.40;;
9563;SDS011;4820;50.870;4.702;2023-02-10T01:23:04;24.95;;;20.35;;
9563;SDS011;4820;50.870;4.702;2023-02-10T01:25:30;26.52;;;21.70;;
9563;SDS011;4820;50.870;4.702;2023-02-10T01:27:58;26.30;;;21.17;;
9563;SDS011;4820;50.870;4.702;2023-02-10T01:30:25;26.20;;;21.70;;
9563;SDS011;4820;50.870;4.702;2023-02-10T01:32:55;27.13;;;22.30;;
9563;SDS011;4820;50.870;4.702;2023-02-10T01:35:21;28.35;;;22.38;;
9563;SDS011;4820;50.870;4.702;2023-02-10T01:37:47;26.95;;;21.98;;
9563;SDS011;4820;50.870;4.702;2023-02-10T01:40:12;28.05;;;21.98;;
9563;SDS011;4820;50.870;4.702;2023-02-10T01:42:38;25.75;;;22.20;;
9563;SDS011;4820;50.870;4.702;2023-02-10T01:48:07;27.13;;;21.48;;
9563;SDS011;4820;50.870;4.702;2023-02-10T01:50:38;27.52;;;21.88;;
9563;SDS011;4820;50.870;4.702;2023-02-10T01:53:12;28.30;;;23.10;;
9563;SDS011;4820;50.870;4.702;2023-02-10T01:55:39;29.08;;;22.83;;
9563;SDS011;4820;50.870;4.702;2023-02-10T01:58:09;26.83;;;21.45;;
9563;SDS011;4820;50.870;4.702;2023-02-10T02:00:37;26.92;;;21.80;;
9563;SDS011;4820;50.870;4.702;2023-02-10T02:03:04;27.92;;;22.33;;
9563;SDS011;4820;50.870;4.702;2023-02-10T02:05:35;27.25;;;22.40;;
9563;SDS011;4820;50.870;4.702;2023-02-10T02:08:21;26.50;;;21.30;;
9563;SDS011;4820;50.870;4.702;2023-02-10T02:10:58;28.15;;;22.40;;
9563;SDS011;4820;50.870;4.702;2023-02-10T02:33:14;27.80;;;21.63;;
9563;SDS011;4820;50.870;4.702;2023-02-10T02:35:48;27.77;;;21.45;;
9563;SDS011;4820;50.870;4.702;2023-02-10T02:38:40;28.27;;;22.20;;
9563;SDS011;4820;50.870;4.702;2023-02-10T02:41:07;27.27;;;21.77;;
9563;SDS011;4820;50.870;4.702;2023-02-10T02:43:33;26.33;;;21.92;;
9563;SDS011;4820;50.870;4.702;2023-02-10T02:51:45;26.60;;;21.00;;
9563;SDS011;4820;50.870;4.702;2023-02-10T02:58:03;29.63;;;22.70;;
9563;SDS011;4820;50.870;4.702;2023-02-10T03:00:36;33.05;;;24.60;;
9563;SDS011;4820;50.870;4.702;2023-02-10T03:03:03;29.17;;;22.98;;
9563;SDS011;4820;50.870;4.702;2023-02-10T03:05:30;32.65;;;23.88;;
9563;SDS011;4820;50.870;4.702;2023-02-10T03:07:57;30.15;;;23.75;;
9563;SDS011;4820;50.870;4.702;2023-02-10T03:10:23;29.17;;;23.05;;
9563;SDS011;4820;50.870;4.702;2023-02-10T03:12:48;29.60;;;23.10;;
9563;SDS011;4820;50.870;4.702;2023-02-10T03:15:15;29.33;;;22.15;;
9563;SDS011;4820;50.870;4.702;2023-02-10T03:17:41;30.00;;;22.42;;
9563;SDS011;4820;50.870;4.702;2023-02-10T03:20:07;29.52;;;22.60;;
9563;SDS011;4820;50.870;4.702;2023-02-10T03:22:33;30.55;;;23.35;;
9563;SDS011;4820;50.870;4.702;2023-02-10T03:24:59;29.20;;;22.77;;
9563;SDS011;4820;50.870;4.702;2023-02-10T03:27:25;27.92;;;21.98;;
9563;SDS011;4820;50.870;4.702;2023-02-10T03:29:51;28.77;;;22.33;;
9563;SDS011;4820;50.870;4.702;2023-02-10T03:32:17;30.25;;;22.38;;
9563;SDS011;4820;50.870;4.702;2023-02-10T03:34:44;26.65;;;21.52;;
9563;SDS011;4820;50.870;4.702;2023-02-10T03:37:10;27.90;;;21.55;;
9563;SDS011;4820;50.870;4.702;2023-02-10T03:39:38;27.40;;;21.75;;
9563;SDS011;4820;50.870;4.702;2023-02-10T03:42:06;27.20;;;20.55;;
9563;SDS011;4820;50.870;4.702;2023-02-10T03:44:32;25.73;;;21.13;;
9563;SDS011;4820;50.870;4.702;2023-02-10T03:46:59;29.90;;;21.30;;
9563;SDS011;4820;50.870;4.702;2023-02-10T03:49:25;25.58;;;20.75;;
9563;SDS011;4820;50.870;4.702;2023-02-10T03:51:51;27.83;;;21.30;;
9563;SDS011;4820;50.870;4.702;2023-02-10T03:54:16;25.35;;;19.95;;
9563;SDS011;4820;50.870;4.702;2023-02-10T03:56:42;27.08;;;21.05;;
9563;SDS011;4820;50.870;4.702;2023-02-10T03:59:08;28.03;;;21.13;;
9563;SDS011;4820;50.870;4.702;2023-02-10T04:01:34;27.23;;;21.23;;
9563;SDS011;4820;50.870;4.702;2023-02-10T04:04:00;28.37;;;20.50;;
9563;SDS011;4820;50.870;4.702;2023-02-10T04:06:26;27.02;;;20.83;;
9563;SDS011;4820;50.870;4.702;2023-02-10T04:08:51;27.85;;;20.77;;
9563;SDS011;4820;50.870;4.702;2023-02-10T04:11:17;29.60;;;21.77;;
9563;SDS011;4820;50.870;4.702;2023-02-10T04:13:44;26.23;;;20.30;;
9563;SDS011;4820;50.870;4.702;2023-02-10T04:16:11;27.40;;;21.08;;
9563;SDS011;4820;50.870;4.702;2023-02-10T04:18:42;30.50;;;21.77;;
9563;SDS011;4820;50.870;4.702;2023-02-10T04:21:09;30.53;;;23.57;;
9563;SDS011;4820;50.870;4.702;2023-02-10T04:23:36;31.93;;;23.23;;
9563;SDS011;4820;50.870;4.702;2023-02-10T04:26:02;28.20;;;22.00;;
9563;SDS011;4820;50.870;4.702;2023-02-10T04:28:28;32.10;;;23.53;;
9563;SDS011;4820;50.870;4.702;2023-02-10T04:30:55;31.17;;;21.80;;
9563;SDS011;4820;50.870;4.702;2023-02-10T04:33:23;31.20;;;22.13;;
9563;SDS011;4820;50.870;4.702;2023-02-10T04:35:52;27.20;;;20.80;;
9563;SDS011;4820;50.870;4.702;2023-02-10T04:38:19;30.07;;;22.10;;
9563;SDS011;4820;50.870;4.702;2023-02-10T04:40:45;30.80;;;22.33;;
9563;SDS011;4820;50.870;4.702;2023-02-10T04:43:11;26.87;;;21.03;;
9563;SDS011;4820;50.870;4.702;2023-02-10T04:45:38;30.23;;;21.93;;
9563;SDS011;4820;50.870;4.702;2023-02-10T04:48:04;28.60;;;21.90;;
9563;SDS011;4820;50.870;4.702;2023-02-10T04:50:30;30.07;;;22.27;;
9563;SDS011;4820;50.870;4.702;2023-02-10T04:52:56;30.37;;;22.47;;
9563;SDS011;4820;50.870;4.702;2023-02-10T04:55:21;30.60;;;22.40;;
9563;SDS011;4820;50.870;4.702;2023-02-10T04:57:47;30.97;;;23.17;;
9563;SDS011;4820;50.870;4.702;2023-02-10T05:00:13;31.83;;;23.13;;
9563;SDS011;4820;50.870;4.702;2023-02-10T05:02:39;30.90;;;21.93;;
9563;SDS011;4820;50.870;4.702;2023-02-10T05:05:06;29.30;;;21.83;;
9563;SDS011;4820;50.870;4.702;2023-02-10T05:07:32;26.75;;;21.48;;
9563;SDS011;4820;50.870;4.702;2023-02-10T05:09:59;28.63;;;21.03;;
9563;SDS011;4820;50.870;4.702;2023-02-10T05:12:27;27.63;;;21.20;;
9563;SDS011;4820;50.870;4.702;2023-02-10T05:14:53;28.33;;;21.05;;
9563;SDS011;4820;50.870;4.702;2023-02-10T05:17:19;26.83;;;21.23;;
9563;SDS011;4820;50.870;4.702;2023-02-10T05:19:44;27.67;;;21.53;;
9563;SDS011;4820;50.870;4.702;2023-02-10T05:22:10;29.47;;;21.70;;
9563;SDS011;4820;50.870;4.702;2023-02-10T05:24:36;30.17;;;21.03;;
9563;SDS011;4820;50.870;4.702;2023-02-10T05:27:01;27.53;;;20.87;;
9563;SDS011;4820;50.870;4.702;2023-02-10T05:29:27;29.90;;;22.70;;
9563;SDS011;4820;50.870;4.702;2023-02-10T05:31:53;29.33;;;20.90;;
9563;SDS011;4820;50.870;4.702;2023-02-10T05:34:19;31.50;;;21.33;;
9563;SDS011;4820;50.870;4.702;2023-02-10T05:36:45;30.30;;;21.50;;
9563;SDS011;4820;50.870;4.702;2023-02-10T05:39:11;29.23;;;21.33;;
9563;SDS011;4820;50.870;4.702;2023-02-10T05:41:55;28.77;;;21.93;;
9563;SDS011;4820;50.870;4.702;2023-02-10T05:44:23;30.37;;;21.57;;
9563;SDS011;4820;50.870;4.702;2023-02-10T05:46:50;27.60;;;20.70;;
9563;SDS011;4820;50.870;4.702;2023-02-10T05:49:16;29.70;;;20.73;;
9563;SDS011;4820;50.870;4.702;2023-02-10T05:51:43;30.00;;;20.70;;
9563;SDS011;4820;50.870;4.702;2023-02-10T05:54:08;27.37;;;21.03;;
9563;SDS011;4820;50.870;4.702;2023-02-10T05:56:35;29.83;;;20.30;;
9563;SDS011;4820;50.870;4.702;2023-02-10T05:59:01;29.43;;;21.57;;
9563;SDS011;4820;50.870;4.702;2023-02-10T06:01:28;30.80;;;22.30;;
9563;SDS011;4820;50.870;4.702;2023-02-10T06:03:54;30.23;;;22.07;;
9563;SDS011;4820;50.870;4.702;2023-02-10T06:06:20;29.90;;;21.07;;
9563;SDS011;4820;50.870;4.702;2023-02-10T06:08:46;28.53;;;21.37;;
9563;SDS011;4820;50.870;4.702;2023-02-10T06:11:11;31.47;;;22.07;;
9563;SDS011;4820;50.870;4.702;2023-02-10T06:13:37;32.20;;;22.10;;
9563;SDS011;4820;50.870;4.702;2023-02-10T06:16:05;30.17;;;21.50;;
9563;SDS011;4820;50.870;4.702;2023-02-10T06:18:31;29.43;;;22.03;;
9563;SDS011;4820;50.870;4.702;2023-02-10T06:20:57;31.10;;;21.90;;
9563;SDS011;4820;50.870;4.702;2023-02-10T06:23:23;32.73;;;23.20;;
9563;SDS011;4820;50.870;4.702;2023-02-10T06:25:50;32.20;;;23.20;;
9563;SDS011;4820;50.870;4.702;2023-02-10T06:28:23;33.93;;;23.97;;
9563;SDS011;4820;50.870;4.702;2023-02-10T06:30:49;32.13;;;23.73;;
9563;SDS011;4820;50.870;4.702;2023-02-10T06:33:15;33.00;;;23.57;;
9563;SDS011;4820;50.870;4.702;2023-02-10T06:35:41;32.90;;;23.07;;
9563;SDS011;4820;50.870;4.702;2023-02-10T06:38:07;32.17;;;22.87;;
9563;SDS011;4820;50.870;4.702;2023-02-10T06:40:33;34.73;;;23.27;;
9563;SDS011;4820;50.870;4.702;2023-02-10T06:42:58;30.13;;;22.83;;
9563;SDS011;4820;50.870;4.702;2023-02-10T06:45:26;33.70;;;23.17;;
9563;SDS011;4820;50.870;4.702;2023-02-10T06:47:54;33.53;;;24.03;;
9563;SDS011;4820;50.870;4.702;2023-02-10T06:50:21;32.73;;;22.60;;
9563;SDS011;4820;50.870;4.702;2023-02-10T06:52:47;31.93;;;22.60;;
9563;SDS011;4820;50.870;4.702;2023-02-10T06:55:13;34.70;;;24.67;;
9563;SDS011;4820;50.870;4.702;2023-02-10T06:57:39;32.73;;;22.83;;
9563;SDS011;4820;50.870;4.702;2023-02-10T07:00:06;30.23;;;22.83;;
9563;SDS011;4820;50.870;4.702;2023-02-10T07:02:34;33.00;;;23.57;;
9563;SDS011;4820;50.870;4.702;2023-02-10T07:05:00;32.73;;;23.47;;
9563;SDS011;4820;50.870;4.702;2023-02-10T07:07:29;37.03;;;23.87;;
9563;SDS011;4820;50.870;4.702;2023-02-10T07:09:55;34.50;;;24.37;;
9563;SDS011;4820;50.870;4.702;2023-02-10T07:12:21;34.80;;;23.20;;
9563;SDS011;4820;50.870;4.702;2023-02-10T07:14:47;34.10;;;23.37;;
9563;SDS011;4820;50.870;4.702;2023-02-10T07:17:14;30.70;;;21.80;;
9563;SDS011;4820;50.870;4.702;2023-02-10T07:19:39;29.80;;;21.60;;
9563;SDS011;4820;50.870;4.702;2023-02-10T07:22:06;29.57;;;21.67;;
9563;SDS011;4820;50.870;4.702;2023-02-10T07:24:33;32.03;;;22.37;;
9563;SDS011;4820;50.870;4.702;2023-02-10T07:26:58;29.70;;;21.93;;
9563;SDS011;4820;50.870;4.702;2023-02-10T07:29:25;31.93;;;22.37;;
9563;SDS011;4820;50.870;4.702;2023-02-10T07:31:53;33.87;;;23.43;;
9563;SDS011;4820;50.870;4.702;2023-02-10T07:34:18;30.10;;;22.57;;
9563;SDS011;4820;50.870;4.702;2023-02-10T07:36:46;32.27;;;22.07;;
9563;SDS011;4820;50.870;4.702;2023-02-10T07:39:12;30.83;;;22.70;;
9563;SDS011;4820;50.870;4.702;2023-02-10T07:41:37;29.83;;;22.07;;
9563;SDS011;4820;50.870;4.702;2023-02-10T07:44:04;30.87;;;23.47;;
9563;SDS011;4820;50.870;4.702;2023-02-10T07:46:30;33.07;;;23.47;;
9563;SDS011;4820;50.870;4.702;2023-02-10T07:48:55;30.90;;;23.13;;
9563;SDS011;4820;50.870;4.702;2023-02-10T07:51:21;31.73;;;22.53;;
9563;SDS011;4820;50.870;4.702;2023-02-10T07:53:47;30.87;;;23.00;;
9563;SDS011;4820;50.870;4.702;2023-02-10T07:56:12;30.73;;;23.70;;
9563;SDS011;4820;50.870;4.702;2023-02-10T07:58:38;31.07;;;23.73;;
9563;SDS011;4820;50.870;4.702;2023-02-10T08:01:07;31.00;;;23.90;;
9563;SDS011;4820;50.870;4.702;2023-02-10T08:03:34;31.33;;;24.00;;
9563;SDS011;4820;50.870;4.702;2023-02-10T08:05:59;29.73;;;23.70;;
9563;SDS011;4820;50.870;4.702;2023-02-10T08:08:25;29.73;;;23.60;;
9563;SDS011;4820;50.870;4.702;2023-02-10T08:10:51;33.73;;;25.17;;
9563;SDS011;4820;50.870;4.702;2023-02-10T08:13:16;31.97;;;25.00;;
9563;SDS011;4820;50.870;4.702;2023-02-10T08:15:43;32.63;;;24.77;;
9563;SDS011;4820;50.870;4.702;2023-02-10T08:18:08;32.07;;;23.53;;
9563;SDS011;4820;50.870;4.702;2023-02-10T08:20:34;37.17;;;27.00;;
9563;SDS011;4820;50.870;4.702;2023-02-10T08:23:01;36.97;;;27.63;;
9563;SDS011;4820;50.870;4.702;2023-02-10T08:25:27;35.90;;;26.07;;
9563;SDS011;4820;50.870;4.702;2023-02-10T08:27:53;35.70;;;26.77;;
9563;SDS011;4820;50.870;4.702;2023-02-10T08:30:19;38.00;;;26.93;;
9563;SDS011;4820;50.870;4.702;2023-02-10T08:32:45;35.70;;;27.07;;
9563;SDS011;4820;50.870;4.702;2023-02-10T08:35:10;38.23;;;27.63;;
9563;SDS011;4820;50.870;4.702;2023-02-10T08:37:36;37.07;;;27.93;;
9563;SDS011;4820;50.870;4.702;2023-02-10T08:40:02;35.87;;;26.37;;
9563;SDS011;4820;50.870;4.702;2023-02-10T08:42:30;36.93;;;27.40;;
9563;SDS011;4820;50.870;4.702;2023-02-10T08:44:56;38.33;;;28.97;;
9563;SDS011;4820;50.870;4.702;2023-02-10T08:47:24;38.67;;;30.00;;
9563;SDS011;4820;50.870;4.702;2023-02-10T08:49:50;38.83;;;29.73;;
9563;SDS011;4820;50.870;4.702;2023-02-10T08:52:15;40.60;;;29.63;;
9563;SDS011;4820;50.870;4.702;2023-02-10T08:54:41;41.53;;;29.67;;
9563;SDS011;4820;50.870;4.702;2023-02-10T08:57:07;41.22;;;30.05;;
9563;SDS011;4820;50.870;4.702;2023-02-10T08:59:34;41.07;;;31.03;;
9563;SDS011;4820;50.870;4.702;2023-02-10T09:02:00;45.27;;;30.43;;
9563;SDS011;4820;50.870;4.702;2023-02-10T09:04:26;42.45;;;29.75;;
9563;SDS011;4820;50.870;4.702;2023-02-10T09:06:52;42.23;;;29.93;;
9563;SDS011;4820;50.870;4.702;2023-02-10T09:09:19;41.05;;;30.50;;
9563;SDS011;4820;50.870;4.702;2023-02-10T09:11:48;44.67;;;31.95;;
9563;SDS011;4820;50.870;4.702;2023-02-10T09:14:14;50.05;;;32.33;;
9563;SDS011;4820;50.870;4.702;2023-02-10T09:16:41;47.45;;;32.33;;
9563;SDS011;4820;50.870;4.702;2023-02-10T09:19:07;50.20;;;34.13;;
9563;SDS011;4820;50.870;4.702;2023-02-10T09:21:33;50.95;;;33.17;;
9563;SDS011;4820;50.870;4.702;2023-02-10T09:23:59;51.80;;;34.47;;
9563;SDS011;4820;50.870;4.702;2023-02-10T09:26:24;50.70;;;32.63;;
9563;SDS011;4820;50.870;4.702;2023-02-10T09:28:50;53.93;;;34.47;;
9563;SDS011;4820;50.870;4.702;2023-02-10T09:31:16;52.60;;;35.47;;
9563;SDS011;4820;50.870;4.702;2023-02-10T09:33:43;55.20;;;36.13;;
9563;SDS011;4820;50.870;4.702;2023-02-10T09:36:16;54.97;;;36.13;;
9563;SDS011;4820;50.870;4.702;2023-02-10T09:38:43;58.30;;;36.20;;
9563;SDS011;4820;50.870;4.702;2023-02-10T09:43:55;53.57;;;36.27;;
9563;SDS011;4820;50.870;4.702;2023-02-10T09:52:45;56.95;;;36.50;;
9563;SDS011;4820;50.870;4.702;2023-02-10T09:55:38;53.57;;;36.43;;
9563;SDS011;4820;50.870;4.702;2023-02-10T10:04:01;54.42;;;35.50;;
9563;SDS011;4820;50.870;4.702;2023-02-10T10:09:45;57.30;;;36.05;;
9563;SDS011;4820;50.870;4.702;2023-02-10T10:12:16;51.73;;;35.63;;
9563;SDS011;4820;50.870;4.702;2023-02-10T10:14:43;57.22;;;37.20;;
9563;SDS011;4820;50.870;4.702;2023-02-10T10:30:54;55.10;;;36.10;;
9563;SDS011;4820;50.870;4.702;2023-02-10T10:33:55;58.03;;;37.93;;
9563;SDS011;4820;50.870;4.702;2023-02-10T10:36:27;61.57;;;38.23;;
9563;SDS011;4820;50.870;4.702;2023-02-10T10:38:59;58.23;;;38.20;;
9563;SDS011;4820;50.870;4.702;2023-02-10T10:41:31;56.58;;;38.00;;
9563;SDS011;4820;50.870;4.702;2023-02-10T10:44:02;60.47;;;39.08;;
9563;SDS011;4820;50.870;4.702;2023-02-10T10:46:36;59.75;;;38.33;;
9563;SDS011;4820;50.870;4.702;2023-02-10T10:49:08;55.58;;;37.00;;
9563;SDS011;4820;50.870;4.702;2023-02-10T10:51:34;59.50;;;37.67;;
9563;SDS011;4820;50.870;4.702;2023-02-10T10:54:00;57.33;;;37.03;;
9563;SDS011;4820;50.870;4.702;2023-02-10T10:56:33;56.70;;;37.03;;
9563;SDS011;4820;50.870;4.702;2023-02-10T10:59:34;56.65;;;35.53;;
9563;SDS011;4820;50.870;4.702;2023-02-10T11:02:11;56.50;;;35.67;;
9563;SDS011;4820;50.870;4.702;2023-02-10T11:04:39;56.47;;;34.97;;
9563;SDS011;4820;50.870;4.702;2023-02-10T11:07:26;54.03;;;35.03;;
9563;SDS011;4820;50.870;4.702;2023-02-10T11:09:55;57.88;;;35.33;;
9563;SDS011;4820;50.870;4.702;2023-02-10T11:14:57;51.55;;;32.88;;
9563;SDS011;4820;50.870;4.702;2023-02-10T11:19:53;53.35;;;34.80;;
9563;SDS011;4820;50.870;4.702;2023-02-10T11:22:29;52.58;;;33.15;;
9563;SDS011;4820;50.870;4.702;2023-02-10T11:24:59;50.20;;;33.25;;
9563;SDS011;4820;50.870;4.702;2023-02-10T11:27:26;51.03;;;33.38;;
9563;SDS011;4820;50.870;4.702;2023-02-10T11:29:54;51.50;;;33.47;;
9563;SDS011;4820;50.870;4.702;2023-02-10T11:32:28;50.60;;;32.75;;
9563;SDS011;4820;50.870;4.702;2023-02-10T11:34:59;48.47;;;32.53;;
9563;SDS011;4820;50.870;4.702;2023-02-10T11:37:29;50.65;;;31.88;;
9563;SDS011;4820;50.870;4.702;2023-02-10T11:39:57;48.03;;;31.65;;
9563;SDS011;4820;50.870;4.702;2023-02-10T11:44:57;52.05;;;32.17;;
9563;SDS011;4820;50.870;4.702;2023-02-10T11:47:40;46.83;;;30.85;;
9563;SDS011;4820;50.870;4.702;2023-02-10T11:50:19;47.80;;;31.98;;
9563;SDS011;4820;50.870;4.702;2023-02-10T11:52:48;48.78;;;31.67;;
9563;SDS011;4820;50.870;4.702;2023-02-10T11:55:15;50.75;;;32.15;;
9563;SDS011;4820;50.870;4.702;2023-02-10T12:06:40;44.67;;;27.02;;
9563;SDS011;4820;50.870;4.702;2023-02-10T12:11:52;42.05;;;28.05;;
9563;SDS011;4820;50.870;4.702;2023-02-10T12:14:53;39.80;;;27.40;;
9563;SDS011;4820;50.870;4.702;2023-02-10T12:25:45;36.38;;;25.27;;
9563;SDS011;4820;50.870;4.702;2023-02-10T12:28:34;32.55;;;23.02;;
9563;SDS011;4820;50.870;4.702;2023-02-10T12:31:21;37.78;;;24.05;;
9563;SDS011;4820;50.870;4.702;2023-02-10T12:39:51;35.72;;;24.58;;
9563;SDS011;4820;50.870;4.702;2023-02-10T12:50:52;37.00;;;25.30;;
9563;SDS011;4820;50.870;4.702;2023-02-10T12:53:24;37.05;;;25.58;;
9563;SDS011;4820;50.870;4.702;2023-02-10T12:58:30;37.28;;;26.85;;
9563;SDS011;4820;50.870;4.702;2023-02-10T13:04:14;38.60;;;26.67;;
9563;SDS011;4820;50.870;4.702;2023-02-10T13:06:43;37.65;;;25.10;;
9563;SDS011;4820;50.870;4.702;2023-02-10T13:14:29;42.35;;;29.67;;
9563;SDS011;4820;50.870;4.702;2023-02-10T13:16:58;41.05;;;29.55;;
9563;SDS011;4820;50.870;4.702;2023-02-10T13:22:42;41.65;;;27.38;;
9563;SDS011;4820;50.870;4.702;2023-02-10T13:25:30;42.00;;;27.90;;
9563;SDS011;4820;50.870;4.702;2023-02-10T13:36:26;41.20;;;27.08;;
9563;SDS011;4820;50.870;4.702;2023-02-10T13:42:55;38.55;;;27.05;;
9563;SDS011;4820;50.870;4.702;2023-02-10T13:52:47;38.70;;;28.10;;
9563;SDS011;4820;50.870;4.702;2023-02-10T13:58:24;43.25;;;29.00;;
9563;SDS011;4820;50.870;4.702;2023-02-10T14:00:50;42.85;;;29.25;;
9563;SDS011;4820;50.870;4.702;2023-02-10T14:06:03;44.28;;;29.38;;
9563;SDS011;4820;50.870;4.702;2023-02-10T14:11:03;45.00;;;29.92;;
9563;SDS011;4820;50.870;4.702;2023-02-10T14:13:38;47.15;;;31.08;;
9563;SDS011;4820;50.870;4.702;2023-02-10T14:16:25;46.05;;;30.63;;
9563;SDS011;4820;50.870;4.702;2023-02-10T14:21:55;45.85;;;31.80;;
9563;SDS011;4820;50.870;4.702;2023-02-10T14:24:23;52.60;;;33.00;;
9563;SDS011;4820;50.870;4.702;2023-02-10T14:26:52;53.50;;;32.50;;
9563;SDS011;4820;50.870;4.702;2023-02-10T14:29:21;49.38;;;31.60;;
9563;SDS011;4820;50.870;4.702;2023-02-10T14:31:58;51.63;;;33.13;;
9563;SDS011;4820;50.870;4.702;2023-02-10T14:34:31;49.65;;;31.95;;
9563;SDS011;4820;50.870;4.702;2023-02-10T14:37:18;45.05;;;31.85;;
9563;SDS011;4820;50.870;4.702;2023-02-10T14:39:59;47.45;;;32.28;;
9563;SDS011;4820;50.870;4.702;2023-02-10T14:42:30;43.72;;;30.80;;
9563;SDS011;4820;50.870;4.702;2023-02-10T14:44:57;48.28;;;30.85;;
9563;SDS011;4820;50.870;4.702;2023-02-10T14:47:35;38.95;;;26.33;;
9563;SDS011;4820;50.870;4.702;2023-02-10T14:50:03;36.33;;;24.45;;
9563;SDS011;4820;50.870;4.702;2023-02-10T14:52:31;39.15;;;24.67;;
9563;SDS011;4820;50.870;4.702;2023-02-10T14:54:59;33.42;;;23.25;;
9563;SDS011;4820;50.870;4.702;2023-02-10T14:57:25;33.88;;;22.88;;
9563;SDS011;4820;50.870;4.702;2023-02-10T15:00:01;33.72;;;23.10;;
9563;SDS011;4820;50.870;4.702;2023-02-10T15:02:29;32.63;;;22.73;;
9563;SDS011;4820;50.870;4.702;2023-02-10T15:04:57;35.20;;;23.17;;
9563;SDS011;4820;50.870;4.702;2023-02-10T15:07:26;31.52;;;22.42;;
9563;SDS011;4820;50.870;4.702;2023-02-10T15:10:02;33.67;;;22.83;;
9563;SDS011;4820;50.870;4.702;2023-02-10T15:12:50;36.17;;;24.23;;
9563;SDS011;4820;50.870;4.702;2023-02-10T15:15:19;34.58;;;22.15;;
9563;SDS011;4820;50.870;4.702;2023-02-10T15:17:56;35.10;;;23.30;;
9563;SDS011;4820;50.870;4.702;2023-02-10T15:20:30;32.20;;;22.80;;
9563;SDS011;4820;50.870;4.702;2023-02-10T15:27:55;37.08;;;24.27;;
9563;SDS011;4820;50.870;4.702;2023-02-10T15:30:23;34.17;;;24.58;;
9563;SDS011;4820;50.870;4.702;2023-02-10T15:32:53;34.70;;;24.02;;
9563;SDS011;4820;50.870;4.702;2023-02-10T15:35:21;36.28;;;23.95;;
9563;SDS011;4820;50.870;4.702;2023-02-10T15:37:57;38.80;;;25.92;;
9563;SDS011;4820;50.870;4.702;2023-02-10T15:40:28;38.67;;;24.50;;
9563;SDS011;4820;50.870;4.702;2023-02-10T15:42:55;39.08;;;25.58;;
9563;SDS011;4820;50.870;4.702;2023-02-10T15:45:22;41.25;;;26.45;;
9563;SDS011;4820;50.870;4.702;2023-02-10T15:48:09;37.67;;;24.98;;
9563;SDS011;4820;50.870;4.702;2023-02-10T15:50:34;42.53;;;25.38;;
9563;SDS011;4820;50.870;4.702;2023-02-10T15:53:02;38.40;;;25.27;;
9563;SDS011;4820;50.870;4.702;2023-02-10T15:55:34;39.30;;;26.13;;
9563;SDS011;4820;50.870;4.702;2023-02-10T15:58:03;42.55;;;25.67;;
9563;SDS011;4820;50.870;4.702;2023-02-10T16:00:30;41.47;;;27.17;;
9563;SDS011;4820;50.870;4.702;2023-02-10T16:02:58;38.92;;;26.33;;
9563;SDS011;4820;50.870;4.702;2023-02-10T16:05:26;41.50;;;26.83;;
9563;SDS011;4820;50.870;4.702;2023-02-10T16:07:53;37.95;;;25.27;;
9563;SDS011;4820;50.870;4.702;2023-02-10T16:10:24;37.67;;;25.75;;
9563;SDS011;4820;50.870;4.702;2023-02-10T16:12:50;38.33;;;24.98;;
9563;SDS011;4820;50.870;4.702;2023-02-10T16:15:19;42.88;;;26.13;;
9563;SDS011;4820;50.870;4.702;2023-02-10T16:17:48;45.08;;;27.05;;
9563;SDS011;4820;50.870;4.702;2023-02-10T16:20:18;41.17;;;25.67;;
9563;SDS011;4820;50.870;4.702;2023-02-10T16:22:46;46.20;;;27.30;;
9563;SDS011;4820;50.870;4.702;2023-02-10T16:25:13;42.20;;;26.52;;
9563;SDS011;4820;50.870;4.702;2023-02-10T16:27:41;45.75;;;28.15;;
9563;SDS011;4820;50.870;4.702;2023-02-10T16:30:07;41.60;;;27.77;;
9563;SDS011;4820;50.870;4.702;2023-02-10T16:32:39;44.35;;;28.20;;
9563;SDS011;4820;50.870;4.702;2023-02-10T16:35:05;44.10;;;28.48;;
9563;SDS011;4820;50.870;4.702;2023-02-10T16:37:31;44.92;;;28.38;;
9563;SDS011;4820;50.870;4.702;2023-02-10T16:39:56;40.28;;;26.83;;
9563;SDS011;4820;50.870;4.702;2023-02-10T16:42:23;44.20;;;28.70;;
9563;SDS011;4820;50.870;4.702;2023-02-10T16:44:48;48.72;;;28.95;;
9563;SDS011;4820;50.870;4.702;2023-02-10T16:47:19;43.33;;;28.38;;
9563;SDS011;4820;50.870;4.702;2023-02-10T16:49:46;44.83;;;27.95;;
9563;SDS011;4820;50.870;4.702;2023-02-10T16:52:12;40.97;;;26.92;;
9563;SDS011;4820;50.870;4.702;2023-02-10T16:54:39;43.55;;;28.48;;
9563;SDS011;4820;50.870;4.702;2023-02-10T16:57:05;43.97;;;27.83;;
9563;SDS011;4820;50.870;4.702;2023-02-10T16:59:33;44.35;;;27.48;;
9563;SDS011;4820;50.870;4.702;2023-02-10T17:01:59;45.20;;;29.10;;
9563;SDS011;4820;50.870;4.702;2023-02-10T17:04:25;46.75;;;29.35;;
9563;SDS011;4820;50.870;4.702;2023-02-10T17:06:51;46.83;;;29.52;;
9563;SDS011;4820;50.870;4.702;2023-02-10T17:09:18;44.08;;;29.15;;
9563;SDS011;4820;50.870;4.702;2023-02-10T17:11:45;43.20;;;28.58;;
9563;SDS011;4820;50.870;4.702;2023-02-10T17:14:11;44.60;;;28.70;;
9563;SDS011;4820;50.870;4.702;2023-02-10T17:16:39;43.05;;;28.63;;
9563;SDS011;4820;50.870;4.702;2023-02-10T17:19:08;42.22;;;27.88;;
9563;SDS011;4820;50.870;4.702;2023-02-10T17:21:35;43.50;;;27.52;;
9563;SDS011;4820;50.870;4.702;2023-02-10T17:24:01;45.42;;;29.48;;
9563;SDS011;4820;50.870;4.702;2023-02-10T17:26:27;45.78;;;29.02;;
9563;SDS011;4820;50.870;4.702;2023-02-10T17:28:54;44.42;;;28.95;;
9563;SDS011;4820;50.870;4.702;2023-02-10T17:31:20;39.08;;;27.90;;
9563;SDS011;4820;50.870;4.702;2023-02-10T17:33:47;45.63;;;29.35;;